createdAt,value
2018-06-15T00:03:24.018Z,16.02
2018-06-15T00:06:48.671Z,16.48
2018-06-15T00:10:13.370Z,16.04
2018-06-15T00:13:38.028Z,15.98
2018-06-15T00:17:02.662Z,15.87
2018-06-15T00:20:27.356Z,15.72
2018-06-15T00:23:51.986Z,15.71
2018-06-15T00:27:16.650Z,15.65
2018-06-15T00:30:41.276Z,15.65
2018-06-15T00:34:05.924Z,15.81
2018-06-15T00:37:30.609Z,15.57
2018-06-15T00:40:55.272Z,15.43
2018-06-15T00:44:19.926Z,15.36
2018-06-15T00:47:44.602Z,15.27
2018-06-15T00:51:09.294Z,15.32
2018-06-15T00:54:33.886Z,15.21
2018-06-15T00:57:58.595Z,15.19
2018-06-15T01:01:23.292Z,15.38
2018-06-15T01:04:47.938Z,15.24
2018-06-15T01:08:12.572Z,15.34
2018-06-15T01:11:37.740Z,15.52
2018-06-15T01:15:02.370Z,15.49
2018-06-15T01:18:27.442Z,15.61
2018-06-15T01:21:52.165Z,15.34
2018-06-15T01:25:16.798Z,15.18
2018-06-15T01:28:41.439Z,15.40
2018-06-15T01:32:07.104Z,15.39
2018-06-15T01:35:31.805Z,15.24
2018-06-15T01:38:56.364Z,15.25
2018-06-15T01:42:20.692Z,15.15
2018-06-15T01:45:45.409Z,15.18
2018-06-15T01:49:09.707Z,15.10
2018-06-15T01:52:34.376Z,15.13
2018-06-15T01:55:58.692Z,15.25
2018-06-15T01:59:23.324Z,14.98
2018-06-15T02:02:47.981Z,14.90
2018-06-15T02:06:12.330Z,15.06
2018-06-15T02:09:37.132Z,14.96
2018-06-15T02:13:01.781Z,14.82
2018-06-15T02:16:26.612Z,14.70
2018-06-15T02:19:51.284Z,14.70
2018-06-15T02:23:16.005Z,14.58
2018-06-15T02:26:40.751Z,14.55
2018-06-15T02:30:05.677Z,14.46
2018-06-15T02:33:30.402Z,14.74
2018-06-15T02:36:55.078Z,14.47
2018-06-15T02:40:19.746Z,14.59
2018-06-15T02:43:44.422Z,14.74
2018-06-15T02:47:09.063Z,14.38
2018-06-15T02:50:33.728Z,14.67
2018-06-15T02:53:58.358Z,14.55
2018-06-15T02:57:22.982Z,14.48
2018-06-15T03:00:47.651Z,14.38
2018-06-15T03:04:12.388Z,14.29
2018-06-15T03:07:37.169Z,14.51
2018-06-15T03:11:01.747Z,14.33
2018-06-15T03:14:26.392Z,14.39
2018-06-15T03:17:51.027Z,14.35
2018-06-15T03:21:15.616Z,14.26
2018-06-15T03:24:40.364Z,14.34
2018-06-15T03:28:05.131Z,14.28
2018-06-15T03:31:29.839Z,14.34
2018-06-15T03:34:54.449Z,14.37
2018-06-15T03:38:19.108Z,14.27
2018-06-15T03:41:43.698Z,14.29
2018-06-15T03:45:08.317Z,14.25
2018-06-15T03:48:32.964Z,14.22
2018-06-15T03:51:57.586Z,14.21
2018-06-15T03:55:22.243Z,14.07
2018-06-15T03:58:46.893Z,14.16
2018-06-15T04:02:11.615Z,14.08
2018-06-15T04:05:36.333Z,14.23
2018-06-15T04:09:01.073Z,14.07
2018-06-15T04:12:25.745Z,14.14
2018-06-15T04:15:50.379Z,14.36
2018-06-15T04:19:15.035Z,14.45
2018-06-15T04:22:39.696Z,14.52
2018-06-15T04:26:04.391Z,14.25
2018-06-15T04:29:29.101Z,14.50
2018-06-15T04:32:53.889Z,14.56
2018-06-15T04:36:18.648Z,14.43
2018-06-15T04:39:42.954Z,14.75
2018-06-15T04:43:07.682Z,14.86
2018-06-15T04:46:32.448Z,14.90
2018-06-15T04:49:57.045Z,15.00
2018-06-15T04:53:21.708Z,15.10
2018-06-15T04:56:46.349Z,14.92
2018-06-15T05:00:11.025Z,14.98
2018-06-15T05:03:35.675Z,15.45
2018-06-15T05:07:00.032Z,15.16
2018-06-15T05:10:25.197Z,15.02
2018-06-15T05:13:49.998Z,15.17
2018-06-15T05:17:14.881Z,15.40
2018-06-15T05:20:39.900Z,15.52
2018-06-15T05:24:04.675Z,15.67
2018-06-15T05:27:29.452Z,15.49
2018-06-15T05:30:54.222Z,15.60
2018-06-15T05:34:18.966Z,15.99
2018-06-15T05:37:43.649Z,15.92
2018-06-15T05:41:08.450Z,15.97
2018-06-15T05:44:33.149Z,16.10
2018-06-15T05:47:57.855Z,15.93
2018-06-15T05:51:22.673Z,16.15
2018-06-15T05:54:47.042Z,15.95
2018-06-15T05:58:11.794Z,15.97
2018-06-15T06:01:36.456Z,16.05
2018-06-15T06:05:01.169Z,15.89
2018-06-15T06:08:25.977Z,16.17
2018-06-15T06:11:50.760Z,16.36
2018-06-15T06:15:15.503Z,16.54
2018-06-15T06:18:40.198Z,16.43
2018-06-15T06:22:04.964Z,16.32
2018-06-15T06:25:29.850Z,16.60
2018-06-15T06:28:54.526Z,16.73
2018-06-15T06:32:19.272Z,17.04
2018-06-15T06:35:44.125Z,17.19
2018-06-15T06:39:10.704Z,16.74
2018-06-15T06:42:35.369Z,16.57
2018-06-15T06:46:00.060Z,17.19
2018-06-15T06:49:24.783Z,17.21
2018-06-15T06:52:49.516Z,17.33
2018-06-15T06:56:13.904Z,17.05
2018-06-15T06:59:38.623Z,17.16
2018-06-15T07:03:03.303Z,17.44
2018-06-15T07:06:28.028Z,17.24
2018-06-15T07:09:52.689Z,17.55
2018-06-15T07:13:17.393Z,17.61
2018-06-15T07:16:42.012Z,17.79
2018-06-15T07:20:06.702Z,17.51
2018-06-15T07:23:31.512Z,17.75
2018-06-15T07:26:56.121Z,17.58
2018-06-15T07:30:20.768Z,17.86
2018-06-15T07:33:45.543Z,17.99
2018-06-15T07:37:10.284Z,17.87
2018-06-15T07:40:34.924Z,18.14
2018-06-15T07:43:59.647Z,18.11
2018-06-15T07:47:24.448Z,18.19
2018-06-15T07:50:50.120Z,18.35
2018-06-15T07:54:14.975Z,18.57
2018-06-15T07:57:39.646Z,18.60
2018-06-15T08:01:04.332Z,18.74
2018-06-15T08:04:28.731Z,18.51
2018-06-15T08:07:53.071Z,18.99
2018-06-15T08:11:17.820Z,18.67
2018-06-15T08:14:42.653Z,18.87
2018-06-15T08:18:07.420Z,19.03
2018-06-15T08:21:31.784Z,18.86
2018-06-15T08:24:56.520Z,19.09
2018-06-15T08:28:21.247Z,19.08
2018-06-15T08:31:46.007Z,19.24
2018-06-15T08:35:10.677Z,19.16
2018-06-15T08:38:35.319Z,18.91
2018-06-15T08:41:59.725Z,19.06
2018-06-15T08:45:24.478Z,19.12
2018-06-15T08:48:49.177Z,19.43
2018-06-15T08:52:13.884Z,19.57
2018-06-15T08:55:38.519Z,19.53
2018-06-15T08:59:03.482Z,19.92
2018-06-15T09:02:27.868Z,20.05
2018-06-15T09:05:52.258Z,19.73
2018-06-15T09:09:17.140Z,19.93
2018-06-15T09:12:41.968Z,20.11
2018-06-15T09:16:06.729Z,20.37
2018-06-15T09:19:31.418Z,20.22
2018-06-15T09:22:56.172Z,20.48
2018-06-15T09:26:20.910Z,20.57
2018-06-15T09:29:45.618Z,20.94
2018-06-15T09:33:10.462Z,20.78
2018-06-15T09:36:35.179Z,20.94
2018-06-15T09:39:59.956Z,21.14
2018-06-15T09:43:24.812Z,21.32
2018-06-15T09:46:49.646Z,21.64
2018-06-15T09:50:14.321Z,21.61
2018-06-15T09:53:39.025Z,21.51
2018-06-15T09:57:03.835Z,21.72
2018-06-15T10:00:33.847Z,22.42
2018-06-15T10:03:58.565Z,22.32
2018-06-15T10:07:23.217Z,22.57
2018-06-15T10:10:47.907Z,22.51
2018-06-15T10:14:12.611Z,21.96
2018-06-15T10:17:36.993Z,22.40
2018-06-15T10:21:01.786Z,22.10
2018-06-15T10:24:26.565Z,22.10
2018-06-15T10:27:52.350Z,22.29
2018-06-15T10:31:17.758Z,22.20
2018-06-15T10:34:43.872Z,21.81
2018-06-15T10:38:08.881Z,21.94
2018-06-15T10:41:33.648Z,22.76
2018-06-15T10:44:59.418Z,22.53
2018-06-15T10:48:24.328Z,22.63
2018-06-15T10:51:49.244Z,21.99
2018-06-15T10:55:14.237Z,21.83
2018-06-15T10:58:39.660Z,22.26
2018-06-15T11:02:04.462Z,22.93
2018-06-15T11:05:29.321Z,22.84
2018-06-15T11:08:54.906Z,22.84
2018-06-15T11:12:21.151Z,22.76
2018-06-15T11:15:47.132Z,23.10
2018-06-15T11:19:13.942Z,23.15
2018-06-15T11:22:38.932Z,22.25
2018-06-15T11:26:05.891Z,23.71
2018-06-15T11:29:32.117Z,24.02
2018-06-15T11:32:56.974Z,23.57
2018-06-15T11:36:22.975Z,23.54
2018-06-15T11:39:48.463Z,23.56
2018-06-15T11:43:13.939Z,23.99
2018-06-15T11:46:38.775Z,22.93
2018-06-15T11:58:02.707Z,23.71
2018-06-15T12:01:27.628Z,23.67
2018-06-15T12:04:52.507Z,23.97
2018-06-15T12:08:17.468Z,23.75
2018-06-15T12:11:42.441Z,24.15
2018-06-15T12:15:07.469Z,24.22
2018-06-15T12:18:33.049Z,22.90
2018-06-15T12:21:58.101Z,22.83
2018-06-15T12:25:23.396Z,23.10
2018-06-15T12:28:48.170Z,23.72
2018-06-15T12:32:12.871Z,23.92
2018-06-15T12:35:37.709Z,23.56
2018-06-15T12:39:02.440Z,23.35
2018-06-15T12:42:27.176Z,23.55
2018-06-15T12:45:52.088Z,23.92
2018-06-15T12:49:16.751Z,24.21
2018-06-15T12:52:41.580Z,23.67
2018-06-15T12:56:06.290Z,23.28
2018-06-15T12:59:31.150Z,23.64
2018-06-15T13:02:55.846Z,24.07
2018-06-15T13:06:20.626Z,23.94
2018-06-15T13:09:45.269Z,23.65
2018-06-15T13:13:10.024Z,23.69
2018-06-15T13:16:35.044Z,24.00
2018-06-15T13:19:59.705Z,24.29
2018-06-15T13:23:24.466Z,23.96
2018-06-15T13:26:50.225Z,24.25
2018-06-15T13:30:15.568Z,24.34
2018-06-15T13:33:40.253Z,24.03
2018-06-15T13:37:05.414Z,24.98
2018-06-15T13:40:30.195Z,24.80
2018-06-15T13:43:55.018Z,24.55
2018-06-15T13:47:19.852Z,24.35
2018-06-15T13:50:44.882Z,24.00
2018-06-15T13:54:09.583Z,24.74
2018-06-15T13:57:34.243Z,24.36
2018-06-15T14:00:58.879Z,24.13
2018-06-15T14:04:23.249Z,24.08
2018-06-15T14:07:47.961Z,23.88
2018-06-15T14:11:12.595Z,24.85
2018-06-15T14:14:37.305Z,24.69
2018-06-15T14:18:02.311Z,25.32
2018-06-15T14:21:26.989Z,25.25
2018-06-15T14:24:51.610Z,25.40
2018-06-15T14:28:16.282Z,24.63
2018-06-15T14:31:40.930Z,24.41
2018-06-15T14:35:05.597Z,25.01
2018-06-15T14:38:30.368Z,25.40
2018-06-15T14:41:54.769Z,25.57
2018-06-15T14:45:19.446Z,25.80
2018-06-15T14:48:44.141Z,26.72
2018-06-15T14:52:08.507Z,26.63
2018-06-15T14:55:33.270Z,26.88
2018-06-15T14:58:57.949Z,26.17
2018-06-15T15:02:22.674Z,26.67
2018-06-15T15:05:47.379Z,27.19
2018-06-15T15:09:11.762Z,27.18
2018-06-15T15:12:36.510Z,27.59
2018-06-15T15:16:01.218Z,26.68
2018-06-15T15:19:25.552Z,27.20
2018-06-15T15:22:50.259Z,26.44
2018-06-15T15:26:15.092Z,27.22
2018-06-15T15:29:39.773Z,27.11
2018-06-15T15:33:04.525Z,27.53
2018-06-15T15:36:29.343Z,27.00
2018-06-15T15:39:53.900Z,27.25
2018-06-15T15:43:18.630Z,27.63
2018-06-15T15:46:42.934Z,28.16
2018-06-15T15:50:07.711Z,28.42
2018-06-15T15:53:32.380Z,28.97
2018-06-15T15:56:57.111Z,28.53
2018-06-15T16:00:21.558Z,28.03
2018-06-15T16:03:46.395Z,28.34
2018-06-15T16:07:11.013Z,26.90
2018-06-15T16:10:35.743Z,27.69
2018-06-15T16:14:00.523Z,28.16
2018-06-15T16:17:25.431Z,28.37
2018-06-15T16:20:50.160Z,28.33
2018-06-15T16:24:14.866Z,28.11
2018-06-15T16:27:39.619Z,28.56
2018-06-15T16:31:04.369Z,28.33
2018-06-15T16:34:29.087Z,27.39
2018-06-15T16:37:53.978Z,27.38
2018-06-15T16:41:18.773Z,26.82
2018-06-15T16:44:43.230Z,27.36
2018-06-15T16:48:07.934Z,26.52
2018-06-15T16:51:32.591Z,27.43
2018-06-15T16:54:56.892Z,27.84
2018-06-15T16:58:21.567Z,27.74
2018-06-15T17:01:46.213Z,27.73
2018-06-15T17:05:11.029Z,27.77
2018-06-15T17:08:35.669Z,28.45
2018-06-15T17:12:00.369Z,28.18
2018-06-15T17:15:25.105Z,27.58
2018-06-15T17:18:49.753Z,28.30
2018-06-15T17:22:14.099Z,27.71
2018-06-15T17:25:38.790Z,28.44
2018-06-15T17:29:03.235Z,28.14
2018-06-15T17:32:27.844Z,28.06
2018-06-15T17:35:52.522Z,28.37
2018-06-15T17:39:17.159Z,27.64
2018-06-15T17:42:41.816Z,27.84
2018-06-15T17:46:06.654Z,27.67
2018-06-15T17:49:31.504Z,27.29
2018-06-15T17:52:55.881Z,27.13
2018-06-15T17:56:20.615Z,27.36
2018-06-15T17:59:45.294Z,27.21
2018-06-15T18:03:10.286Z,27.61
2018-06-15T18:06:34.938Z,27.14
2018-06-15T18:09:59.789Z,27.36
2018-06-15T18:13:24.489Z,27.00
2018-06-15T18:16:49.376Z,26.84
2018-06-15T18:20:14.054Z,26.85
2018-06-15T18:23:38.857Z,26.76
2018-06-15T18:27:03.610Z,26.84
2018-06-15T18:30:29.160Z,26.55
2018-06-15T18:33:53.964Z,26.48
2018-06-15T18:37:18.614Z,25.70
2018-06-15T18:40:43.473Z,25.54
2018-06-15T18:44:08.500Z,24.88
2018-06-15T18:47:33.478Z,24.45
2018-06-15T18:50:58.451Z,24.23
2018-06-15T18:54:23.354Z,24.13
2018-06-15T18:57:48.196Z,23.76
2018-06-15T19:01:12.947Z,23.74
2018-06-15T19:04:37.744Z,23.74
2018-06-15T19:08:02.514Z,23.52
2018-06-15T19:11:27.249Z,23.43
2018-06-15T19:14:51.968Z,23.30
2018-06-15T19:18:16.805Z,23.17
2018-06-15T19:21:41.228Z,22.81
2018-06-15T19:25:06.002Z,22.95
2018-06-15T19:28:30.730Z,22.79
2018-06-15T19:31:55.483Z,22.73
2018-06-15T19:35:20.128Z,22.54
2018-06-15T19:38:44.805Z,22.38
2018-06-15T19:42:09.449Z,22.41
2018-06-15T19:45:34.147Z,22.06
2018-06-15T19:48:58.895Z,21.93
2018-06-15T19:52:23.555Z,21.69
2018-06-15T19:55:48.254Z,21.50
2018-06-15T19:59:12.907Z,21.40
2018-06-15T20:02:37.533Z,21.07
2018-06-15T20:06:02.254Z,20.70
2018-06-15T20:09:26.921Z,20.73
2018-06-15T20:12:51.562Z,20.54
2018-06-15T20:16:16.852Z,20.36
2018-06-15T20:19:41.595Z,20.18
2018-06-15T20:23:06.379Z,20.16
2018-06-15T20:26:31.169Z,20.21
2018-06-15T20:29:55.573Z,20.16
2018-06-15T20:33:20.240Z,20.02
2018-06-15T20:36:44.959Z,19.98
2018-06-15T20:40:09.334Z,20.06
2018-06-15T20:43:33.993Z,19.73
2018-06-15T20:46:58.636Z,19.82
2018-06-15T20:50:23.320Z,19.62
2018-06-15T20:53:48.011Z,19.76
2018-06-15T20:57:12.724Z,19.51
2018-06-15T21:00:37.337Z,19.39
2018-06-15T21:04:01.983Z,19.30
2018-06-15T21:07:26.673Z,19.35
2018-06-15T21:10:51.321Z,19.35
2018-06-15T21:14:16.129Z,19.02
2018-06-15T21:17:40.795Z,19.11
2018-06-15T21:21:05.503Z,18.99
2018-06-15T21:24:29.893Z,19.02
2018-06-15T21:27:54.726Z,19.06
2018-06-15T21:31:19.574Z,19.12
2018-06-15T21:34:44.331Z,18.91
2018-06-15T21:38:09.256Z,18.84
2018-06-15T21:41:33.957Z,18.63
2018-06-15T21:44:58.621Z,18.55
2018-06-15T21:48:23.283Z,18.59
2018-06-15T21:51:48.053Z,18.64
2018-06-15T21:55:12.764Z,18.80
2018-06-15T21:58:37.482Z,18.73
2018-06-15T22:02:02.260Z,18.81
2018-06-15T22:05:26.916Z,18.65
2018-06-15T22:08:51.333Z,18.98
2018-06-15T22:12:16.032Z,18.97
2018-06-15T22:15:40.740Z,18.43
2018-06-15T22:19:05.566Z,18.38
2018-06-15T22:22:31.277Z,18.34
2018-06-15T22:25:56.009Z,18.46
2018-06-15T22:29:20.796Z,18.36
2018-06-15T22:32:45.450Z,18.33
2018-06-15T22:36:10.296Z,18.41
2018-06-15T22:39:34.986Z,18.23
2018-06-15T22:42:59.659Z,18.13
2018-06-15T22:46:24.356Z,18.06
2018-06-15T22:49:49.040Z,18.03
2018-06-15T22:53:13.705Z,18.03
2018-06-15T22:56:40.967Z,17.91
2018-06-15T23:00:06.152Z,17.86
2018-06-15T23:03:30.961Z,18.03
2018-06-15T23:06:55.607Z,17.77
2018-06-15T23:10:20.364Z,17.74
2018-06-15T23:13:45.104Z,17.56
2018-06-15T23:17:09.818Z,17.56
2018-06-15T23:20:34.468Z,17.52
2018-06-15T23:23:58.801Z,17.25
2018-06-15T23:27:23.484Z,17.43
2018-06-15T23:30:48.263Z,17.38
2018-06-15T23:34:13.026Z,17.28
2018-06-15T23:37:37.705Z,17.30
2018-06-15T23:41:02.399Z,17.30
2018-06-15T23:44:26.717Z,17.24
2018-06-15T23:47:51.368Z,17.36
2018-06-15T23:51:16.065Z,16.93
2018-06-15T23:54:40.739Z,17.12
2018-06-15T23:58:05.547Z,17.17
